createdAt,value
2018-12-06T00:01:05.108Z,98873.69
2018-12-06T00:04:10.032Z,98874.73
2018-12-06T00:07:14.960Z,98890.19
2018-12-06T00:10:19.998Z,98881.45
2018-12-06T00:13:24.919Z,98881.59
2018-12-06T00:16:29.826Z,98883.57
2018-12-06T00:19:51.968Z,98887.78
2018-12-06T00:22:56.870Z,98886.80
2018-12-06T00:26:01.800Z,98872.23
2018-12-06T00:29:06.959Z,98869.89
2018-12-06T00:32:11.854Z,98870.59
2018-12-06T00:35:16.788Z,98869.09
2018-12-06T00:38:21.786Z,98874.14
2018-12-06T00:41:26.696Z,98877.56
2018-12-06T00:44:31.715Z,98877.74
2018-12-06T00:47:36.615Z,98875.66
2018-12-06T00:50:41.530Z,98866.84
2018-12-06T00:53:46.435Z,98861.64
2018-12-06T00:56:51.340Z,98866.34
2018-12-06T00:59:56.268Z,98861.47
2018-12-06T01:03:01.312Z,98864.63
2018-12-06T01:06:06.231Z,98867.17
2018-12-06T01:09:11.141Z,98873.15
2018-12-06T01:12:16.386Z,98881.67
2018-12-06T01:15:21.299Z,98877.02
2018-12-06T01:18:26.191Z,98877.30
2018-12-06T01:21:31.583Z,98873.48
2018-12-06T01:24:36.596Z,98891.05
2018-12-06T01:27:41.496Z,98893.91
2018-12-06T01:30:46.438Z,98888.27
2018-12-06T01:33:51.447Z,98889.16
2018-12-06T01:36:56.335Z,98889.16
2018-12-06T01:40:01.270Z,98886.66
2018-12-06T01:43:06.173Z,98886.14
2018-12-06T01:46:11.093Z,98877.27
2018-12-06T01:49:16.003Z,98868.20
2018-12-06T01:52:21.040Z,98861.83
2018-12-06T01:55:25.951Z,98851.13
2018-12-06T01:58:30.836Z,98847.92
2018-12-06T02:01:35.859Z,98836.34
2018-12-06T02:04:40.847Z,98838.12
2018-12-06T02:07:45.703Z,98854.95
2018-12-06T02:10:50.683Z,98854.72
2018-12-06T02:13:55.556Z,98847.80
2018-12-06T02:17:00.675Z,98847.12
2018-12-06T02:20:05.871Z,98842.16
2018-12-06T02:23:10.736Z,98850.23
2018-12-06T02:26:15.601Z,98858.11
2018-12-06T02:29:20.576Z,98858.92
2018-12-06T02:32:25.507Z,98857.93
2018-12-06T02:35:30.389Z,98851.76
2018-12-06T02:38:35.457Z,98856.59
2018-12-06T02:41:40.430Z,98849.16
2018-12-06T02:44:45.405Z,98845.21
2018-12-06T02:47:50.456Z,98847.73
2018-12-06T02:50:55.362Z,98847.66
2018-12-06T02:54:00.344Z,98851.39
2018-12-06T02:57:05.457Z,98845.80
2018-12-06T03:00:11.104Z,98835.37
2018-12-06T03:03:15.947Z,98838.91
2018-12-06T03:06:20.955Z,98838.61
2018-12-06T03:09:25.815Z,98839.34
2018-12-06T03:12:30.854Z,98828.70
2018-12-06T03:15:35.857Z,98832.02
2018-12-06T03:18:40.716Z,98828.09
2018-12-06T03:21:45.573Z,98831.71
2018-12-06T03:24:50.552Z,98827.00
2018-12-06T03:27:55.420Z,98827.89
2018-12-06T03:31:00.387Z,98812.59
2018-12-06T03:34:05.514Z,98809.93
2018-12-06T03:37:10.392Z,98805.61
2018-12-06T03:40:15.375Z,98806.20
2018-12-06T03:43:20.338Z,98799.83
2018-12-06T03:46:25.416Z,98795.00
2018-12-06T03:49:30.345Z,98793.61
2018-12-06T03:52:35.308Z,98787.97
2018-12-06T03:55:40.305Z,98789.39
2018-12-06T03:58:45.162Z,98788.81
2018-12-06T04:01:50.167Z,98792.02
2018-12-06T04:04:55.014Z,98788.40
2018-12-06T04:07:59.903Z,98787.06
2018-12-06T04:11:04.772Z,98789.44
2018-12-06T04:14:09.665Z,98792.23
2018-12-06T04:17:14.520Z,98789.86
2018-12-06T04:20:19.376Z,98788.34
2018-12-06T04:23:24.378Z,98790.98
2018-12-06T04:26:29.389Z,98804.77
2018-12-06T04:29:34.397Z,98808.79
2018-12-06T04:32:39.332Z,98809.37
2018-12-06T04:35:44.223Z,98810.91
2018-12-06T04:38:49.115Z,98817.34
2018-12-06T04:41:54.030Z,98812.58
2018-12-06T04:44:59.143Z,98815.63
2018-12-06T04:48:04.328Z,98818.72
2018-12-06T04:51:09.226Z,98817.21
2018-12-06T04:54:14.591Z,98817.20
2018-12-06T04:57:19.508Z,98817.36
2018-12-06T05:00:24.428Z,98816.95
2018-12-06T05:03:29.448Z,98817.36
2018-12-06T05:06:34.374Z,98827.74
2018-12-06T05:09:39.384Z,98822.91
2018-12-06T05:12:44.308Z,98823.15
2018-12-06T05:15:49.335Z,98821.75
2018-12-06T05:18:54.293Z,98833.83
2018-12-06T05:21:59.205Z,98830.70
2018-12-06T05:25:04.912Z,98824.45
2018-12-06T05:28:09.997Z,98826.61
2018-12-06T05:31:15.199Z,98820.91
2018-12-06T05:34:20.521Z,98822.06
2018-12-06T05:37:25.668Z,98813.05
2018-12-06T05:40:30.737Z,98815.27
2018-12-06T05:43:36.025Z,98819.89
2018-12-06T05:46:41.222Z,98819.25
2018-12-06T05:49:46.379Z,98824.27
2018-12-06T05:52:51.602Z,98818.62
2018-12-06T05:55:56.635Z,98816.95
2018-12-06T05:59:02.143Z,98817.09
2018-12-06T06:02:07.645Z,98817.38
2018-12-06T06:05:13.105Z,98819.15
2018-12-06T06:08:18.240Z,98832.86
2018-12-06T06:11:23.324Z,98844.16
2018-12-06T06:14:28.577Z,98847.20
2018-12-06T06:17:33.881Z,98849.02
2018-12-06T06:20:39.486Z,98850.69
2018-12-06T06:23:44.859Z,98846.46
2018-12-06T06:26:49.980Z,98853.75
2018-12-06T06:29:55.271Z,98854.88
2018-12-06T06:33:02.687Z,98863.20
2018-12-06T06:36:07.947Z,98865.26
2018-12-06T06:39:13.096Z,98875.88
2018-12-06T06:42:20.398Z,98882.67
2018-12-06T06:45:25.690Z,98890.59
2018-12-06T06:48:32.851Z,98897.02
2018-12-06T06:51:38.296Z,98902.77
2018-12-06T06:54:43.786Z,98900.36
2018-12-06T06:57:49.087Z,98909.17
2018-12-06T07:00:54.371Z,98922.11
2018-12-06T07:04:00.164Z,98927.76
2018-12-06T07:07:05.208Z,98933.77
2018-12-06T07:10:10.834Z,98940.41
2018-12-06T07:13:15.834Z,98949.51
2018-12-06T07:16:23.053Z,98942.61
2018-12-06T07:19:28.204Z,98931.05
2018-12-06T07:22:33.812Z,98934.64
2018-12-06T07:25:46.203Z,98947.09
2018-12-06T07:28:48.655Z,98949.00
2018-12-06T07:31:54.151Z,98962.32
2018-12-06T07:35:02.381Z,98972.56
2018-12-06T07:38:07.720Z,98966.93
2018-12-06T07:41:12.799Z,98974.76
2018-12-06T07:44:18.089Z,98975.25
2018-12-06T07:47:24.184Z,98981.78
2018-12-06T07:50:29.614Z,98988.19
2018-12-06T07:53:35.036Z,99002.66
2018-12-06T07:56:40.273Z,98993.33
2018-12-06T07:59:45.646Z,98993.95
2018-12-06T08:02:50.939Z,99000.63
2018-12-06T08:05:58.329Z,99004.98
2018-12-06T08:09:07.376Z,98998.95
2018-12-06T08:12:12.858Z,98993.81
2018-12-06T08:15:20.588Z,98983.80
2018-12-06T08:18:26.059Z,98977.79
2018-12-06T08:21:31.608Z,98976.91
2018-12-06T08:24:36.971Z,98987.77
2018-12-06T08:27:50.768Z,98986.38
2018-12-06T08:30:55.925Z,98986.59
2018-12-06T08:34:06.182Z,98993.75
2018-12-06T08:37:08.783Z,98999.91
2018-12-06T08:40:15.166Z,98988.86
2018-12-06T08:43:20.514Z,98995.43
2018-12-06T08:46:27.760Z,98988.39
2018-12-06T08:49:32.985Z,98986.56
2018-12-06T08:52:38.303Z,99003.39
2018-12-06T08:55:44.943Z,99005.59
2018-12-06T08:58:50.469Z,99018.44
2018-12-06T09:01:55.877Z,99020.60
2018-12-06T09:05:01.441Z,99019.14
2018-12-06T09:08:07.149Z,99011.99
2018-12-06T09:11:12.505Z,99013.47
2018-12-06T09:14:17.824Z,99007.53
2018-12-06T09:17:23.024Z,99019.36
2018-12-06T09:20:28.717Z,99025.70
2018-12-06T09:24:16.397Z,99029.38
2018-12-06T09:27:23.776Z,99035.01
2018-12-06T09:30:29.223Z,99033.00
2018-12-06T09:33:44.739Z,99034.20
2018-12-06T09:36:49.885Z,99047.76
2018-12-06T09:39:59.195Z,99052.86
2018-12-06T09:43:04.622Z,99063.92
2018-12-06T09:46:09.740Z,99060.96
2018-12-06T09:49:15.045Z,99061.39
2018-12-06T09:52:20.331Z,99052.59
2018-12-06T09:55:25.547Z,99046.80
2018-12-06T09:58:30.857Z,99049.98
2018-12-06T10:01:35.870Z,99040.54
2018-12-06T10:04:41.147Z,99035.02
2018-12-06T10:07:46.413Z,99042.17
2018-12-06T10:10:51.531Z,99052.44
2018-12-06T10:13:57.100Z,99049.48
2018-12-06T10:17:04.265Z,99047.92
2018-12-06T10:20:09.908Z,99041.76
2018-12-06T10:23:15.126Z,99043.63
2018-12-06T10:26:26.096Z,99045.34
2018-12-06T10:29:36.088Z,99048.98
2018-12-06T10:32:41.528Z,99044.33
2018-12-06T10:35:46.757Z,99050.05
2018-12-06T10:38:52.095Z,99048.65
2018-12-06T10:41:57.116Z,99056.53
2018-12-06T10:45:02.827Z,99040.11
2018-12-06T10:48:08.103Z,99032.91
2018-12-06T10:51:24.916Z,99025.81
2018-12-06T10:54:31.305Z,99022.80
2018-12-06T10:57:36.614Z,99017.77
2018-12-06T11:00:48.169Z,99006.31
2018-12-06T11:03:59.560Z,99006.93
2018-12-06T11:07:06.315Z,99002.91
2018-12-06T11:10:11.640Z,98999.36
2018-12-06T11:13:19.007Z,98990.53
2018-12-06T11:16:26.603Z,98995.91
2018-12-06T11:19:32.347Z,99003.43
2018-12-06T11:22:39.744Z,99001.69
2018-12-06T11:25:47.342Z,99006.93
2018-12-06T11:28:54.619Z,99011.18
2018-12-06T11:32:02.067Z,99011.75
2018-12-06T11:35:07.971Z,99011.38
2018-12-06T11:38:13.625Z,99014.85
2018-12-06T11:41:20.865Z,99013.67
2018-12-06T11:44:26.179Z,99016.53
2018-12-06T11:47:31.707Z,99020.80
2018-12-06T11:50:39.212Z,99015.77
2018-12-06T11:53:46.705Z,99010.73
2018-12-06T11:56:52.227Z,99009.84
2018-12-06T12:00:00.771Z,99024.32
2018-12-06T12:03:06.399Z,99030.67
2018-12-06T12:06:13.976Z,99044.42
2018-12-06T12:09:20.183Z,99043.73
2018-12-06T12:12:25.793Z,99056.42
2018-12-06T12:15:35.256Z,99048.08
2018-12-06T12:18:42.719Z,99040.06
2018-12-06T12:21:48.160Z,99029.48
2018-12-06T12:24:55.936Z,99029.24
2018-12-06T12:28:02.863Z,99032.37
2018-12-06T12:31:08.497Z,99040.73
2018-12-06T12:34:15.651Z,99034.96
2018-12-06T12:37:23.474Z,99022.52
2018-12-06T12:40:37.576Z,99033.06
2018-12-06T12:43:43.143Z,99041.88
2018-12-06T12:46:48.482Z,99045.91
2018-12-06T12:49:58.595Z,99043.58
2018-12-06T12:53:06.235Z,99042.20
2018-12-06T12:56:13.586Z,99033.11
2018-12-06T12:59:20.599Z,99040.19
2018-12-06T13:02:26.341Z,99047.36
2018-12-06T13:05:33.419Z,99056.53
2018-12-06T13:08:40.572Z,99053.63
2018-12-06T13:11:47.720Z,99052.23
2018-12-06T13:14:54.775Z,99049.78
2018-12-06T13:18:04.176Z,99040.19
2018-12-06T13:21:09.482Z,99031.03
2018-12-06T13:24:15.267Z,99025.05
2018-12-06T13:27:21.476Z,99019.42
2018-12-06T13:30:27.439Z,99022.52
2018-12-06T13:33:34.987Z,99029.74
2018-12-06T13:36:44.763Z,99035.41
2018-12-06T13:39:50.663Z,99039.06
2018-12-06T13:42:58.309Z,99040.70
2018-12-06T13:46:04.918Z,99054.88
2018-12-06T13:49:11.488Z,99053.03
2018-12-06T13:52:18.636Z,99049.97
2018-12-06T13:55:26.408Z,99036.59
2018-12-06T13:58:36.233Z,99040.41
2018-12-06T14:01:42.914Z,99027.91
2018-12-06T14:04:48.615Z,99039.15
2018-12-06T14:07:57.601Z,99040.13
2018-12-06T14:11:03.385Z,99049.59
2018-12-06T14:14:10.741Z,99050.34
2018-12-06T14:17:18.019Z,99045.59
2018-12-06T14:20:24.184Z,99052.91
2018-12-06T14:23:30.603Z,99057.94
2018-12-06T14:26:38.099Z,99065.88
2018-12-06T14:29:43.807Z,99070.75
2018-12-06T14:32:49.399Z,99068.91
2018-12-06T14:35:56.855Z,99073.51
2018-12-06T14:39:05.992Z,99074.95
2018-12-06T14:42:11.713Z,99069.98
2018-12-06T14:45:18.860Z,99070.20
2018-12-06T14:48:26.043Z,99074.73
2018-12-06T14:51:35.059Z,99079.20
2018-12-06T14:54:43.015Z,99074.48
2018-12-06T15:01:19.323Z,99078.53
2018-12-06T15:04:26.586Z,99081.16
2018-12-06T15:07:32.020Z,99086.51
2018-12-06T15:10:39.718Z,99080.75
2018-12-06T15:13:45.519Z,99087.22
2018-12-06T15:16:53.009Z,99082.39
2018-12-06T15:19:58.530Z,99088.11
2018-12-06T15:23:05.191Z,99085.33
2018-12-06T15:26:12.587Z,99080.28
2018-12-06T15:29:20.032Z,99070.71
2018-12-06T15:32:25.671Z,99068.73
2018-12-06T15:35:33.299Z,99073.02
2018-12-06T15:38:40.808Z,99077.28
2018-12-06T15:41:47.011Z,99079.54
2018-12-06T15:44:53.109Z,99086.14
2018-12-06T15:48:00.315Z,99074.36
2018-12-06T15:51:05.870Z,99070.58
2018-12-06T15:54:11.275Z,99075.03
2018-12-06T15:57:16.600Z,99072.92
2018-12-06T16:00:22.039Z,99078.36
2018-12-06T16:03:27.300Z,99081.02
2018-12-06T16:06:32.587Z,99090.05
2018-12-06T16:09:38.048Z,99088.14
2018-12-06T16:12:43.594Z,99088.92
2018-12-06T16:15:51.006Z,99094.09
2018-12-06T16:19:02.965Z,99091.66
2018-12-06T16:22:14.735Z,99091.10
2018-12-06T16:25:22.026Z,99094.03
2018-12-06T16:28:29.825Z,99094.76
2018-12-06T16:31:35.426Z,99101.45
2018-12-06T16:34:40.784Z,99094.09
2018-12-06T16:37:48.004Z,99098.05
2018-12-06T16:40:55.395Z,99098.05
2018-12-06T16:44:04.618Z,99103.16
2018-12-06T16:47:09.577Z,99096.23
2018-12-06T16:50:14.508Z,99097.75
2018-12-06T16:53:19.583Z,99098.55
2018-12-06T16:56:24.587Z,99099.39
2018-12-06T16:59:29.553Z,99100.73
2018-12-06T17:02:34.551Z,99106.09
2018-12-06T17:05:39.532Z,99107.25
2018-12-06T17:08:44.455Z,99116.16
2018-12-06T17:11:49.552Z,99114.30
2018-12-06T17:14:54.487Z,99109.42
2018-12-06T17:17:59.547Z,99111.20
2018-12-06T17:21:05.047Z,99105.20
2018-12-06T17:24:10.166Z,99114.43
2018-12-06T17:27:15.201Z,99107.55
2018-12-06T17:30:20.387Z,99111.84
2018-12-06T17:33:25.408Z,99109.02
2018-12-06T17:36:30.471Z,99109.06
2018-12-06T17:39:35.436Z,99110.88
2018-12-06T17:42:40.441Z,99117.92
2018-12-06T17:45:45.631Z,99115.72
2018-12-06T17:48:50.728Z,99108.84
2018-12-06T17:51:55.726Z,99114.74
2018-12-06T17:55:00.740Z,99111.72
2018-12-06T17:58:05.643Z,99103.74
2018-12-06T18:01:10.726Z,99111.14
2018-12-06T18:04:15.707Z,99106.45
2018-12-06T18:07:20.892Z,99110.27
2018-12-06T18:10:26.179Z,99111.53
2018-12-06T18:13:31.182Z,99108.83
2018-12-06T18:16:36.613Z,99102.27
2018-12-06T18:19:41.703Z,99094.73
2018-12-06T18:22:46.767Z,99100.23
2018-12-06T18:25:52.208Z,99094.83
2018-12-06T18:28:57.387Z,99098.41
2018-12-06T18:32:04.363Z,99095.51
2018-12-06T18:35:09.878Z,99095.59
2018-12-06T18:38:16.080Z,99093.95
2018-12-06T18:41:21.392Z,99091.45
2018-12-06T18:44:26.529Z,99088.26
2018-12-06T18:47:31.681Z,99085.55
2018-12-06T18:50:36.712Z,99072.75
2018-12-06T18:53:42.263Z,99058.51
2018-12-06T18:56:47.281Z,99058.19
2018-12-06T18:59:52.342Z,99058.28
2018-12-06T19:02:57.511Z,99051.11
2018-12-06T19:06:02.855Z,99052.91
2018-12-06T19:09:07.905Z,99054.69
2018-12-06T19:12:12.905Z,99057.13
2018-12-06T19:15:17.944Z,99051.94
2018-12-06T19:18:23.035Z,99052.81
2018-12-06T19:21:28.191Z,99055.11
2018-12-06T19:24:33.132Z,99052.79
2018-12-06T19:27:38.215Z,99049.66
2018-12-06T19:30:43.368Z,99051.38
2018-12-06T19:33:48.460Z,99056.52
2018-12-06T19:36:53.502Z,99058.09
2018-12-06T19:43:48.297Z,99059.50
2018-12-06T19:47:53.315Z,99055.36
2018-12-06T19:51:58.313Z,99061.06
2018-12-06T19:56:04.028Z,99048.70
2018-12-06T20:00:09.259Z,99037.90
2018-12-06T20:04:14.308Z,99042.30
2018-12-06T20:08:19.411Z,99048.47
2018-12-06T20:12:24.391Z,99046.08
2018-12-06T20:16:29.548Z,99046.63
2018-12-06T20:20:34.531Z,99039.52
2018-12-06T20:24:55.132Z,99027.28
2018-12-06T20:27:00.268Z,99026.76
2018-12-06T20:29:05.372Z,99026.86
2018-12-06T20:31:10.631Z,99034.64
2018-12-06T20:33:15.756Z,99034.70
2018-12-06T20:35:20.804Z,99022.98
2018-12-06T20:37:26.010Z,99032.20
2018-12-06T20:44:43.723Z,99029.41
2018-12-06T20:50:09.231Z,99031.19
2018-12-06T20:55:24.285Z,99029.84
2018-12-06T21:00:39.400Z,99040.31
2018-12-06T21:05:54.660Z,99027.33
2018-12-06T21:11:09.847Z,99031.52
2018-12-06T21:16:25.486Z,99017.16
2018-12-06T21:21:40.523Z,99009.25
2018-12-06T21:26:55.676Z,99007.88
2018-12-06T21:32:10.625Z,99006.95
2018-12-06T21:37:25.678Z,99008.82
2018-12-06T21:42:40.608Z,99004.84
2018-12-06T21:47:55.735Z,98999.75
2018-12-06T21:53:10.837Z,98996.84
2018-12-06T21:58:25.822Z,98996.38
2018-12-06T22:03:40.809Z,98999.84
2018-12-06T22:08:55.756Z,98989.94
2018-12-06T22:14:10.694Z,99001.09
2018-12-06T22:19:25.635Z,98993.07
2018-12-06T22:24:40.643Z,99000.36
2018-12-06T22:29:55.614Z,98992.43
2018-12-06T22:35:10.620Z,98991.02
2018-12-06T22:40:25.577Z,98980.17
2018-12-06T22:45:57.772Z,98983.23
2018-12-06T23:06:23.739Z,98999.84
2018-12-06T23:11:38.721Z,98994.02
2018-12-06T23:16:53.991Z,98991.70
2018-12-06T23:22:08.984Z,98993.53
2018-12-06T23:27:23.960Z,98991.30
2018-12-06T23:32:38.988Z,98989.00
2018-12-06T23:37:54.119Z,98980.87
2018-12-06T23:43:39.898Z,98965.07
2018-12-06T23:48:54.801Z,98955.88
2018-12-06T23:54:09.709Z,98962.66
2018-12-06T23:59:24.619Z,98955.05
